Time;durP1;ratioP1;P1;durP2;ratioP2;P2;SDS_P1;SDS_P2;PMS_P1;PMS_P2;Temp;Humidity;BMP_temperature;BMP_pressure;BME280_temperature;BME280_humidity;BME280_pressure;Samples;Min_cycle;Max_cycle;Signal;HPM_P1;HPM_P2
2022/02/15 00:01:28;;;;;;;8.97;4.57;;;5.40;99.90;;;;;;5010814;28;20034;-85
2022/02/15 00:03:54;;;;;;;11.00;5.63;;;5.40;99.90;;;;;;5015075;28;20426;-84
2022/02/15 00:06:19;;;;;;;8.93;5.10;;;5.40;99.90;;;;;;5015040;28;20037;-84
2022/02/15 00:08:45;;;;;;;9.47;5.27;;;5.30;99.90;;;;;;4997575;28;20551;-85
2022/02/15 00:11:10;;;;;;;9.47;5.77;;;5.30;99.90;;;;;;5014967;28;20108;-85
2022/02/15 00:13:36;;;;;;;7.43;5.30;;;5.30;99.90;;;;;;5014690;28;20026;-85
2022/02/15 00:16:02;;;;;;;10.10;5.30;;;5.30;99.90;;;;;;5015397;28;20060;-85
2022/02/15 00:18:27;;;;;;;9.40;5.47;;;5.20;99.90;;;;;;5015249;28;20033;-85
2022/02/15 00:20:53;;;;;;;8.57;5.37;;;5.20;99.90;;;;;;5015080;28;20026;-84
2022/02/15 00:23:18;;;;;;;9.97;5.33;;;5.20;99.90;;;;;;5014821;28;20052;-84
2022/02/15 00:25:44;;;;;;;11.13;5.43;;;5.10;99.90;;;;;;5014669;28;20026;-84
2022/02/15 00:28:10;;;;;;;12.63;5.77;;;5.10;99.90;;;;;;5015109;28;20034;-85
2022/02/15 00:30:35;;;;;;;9.10;5.50;;;5.10;99.90;;;;;;5015023;28;20022;-85
2022/02/15 00:33:01;;;;;;;10.83;5.43;;;5.10;99.90;;;;;;5015428;28;20028;-86
2022/02/15 00:35:26;;;;;;;8.33;5.37;;;5.00;99.90;;;;;;5015517;28;20021;-86
2022/02/15 00:37:52;;;;;;;10.30;5.47;;;5.00;99.90;;;;;;5014892;28;20025;-85
2022/02/15 00:40:18;;;;;;;8.37;5.30;;;5.00;99.90;;;;;;4996940;28;20056;-85
2022/02/15 00:42:43;;;;;;;10.37;5.43;;;5.00;99.90;;;;;;5014633;28;20037;-85
2022/02/15 00:45:10;;;;;;;10.03;5.50;;;4.90;99.90;;;;;;5014345;28;20045;-85
2022/02/15 00:47:36;;;;;;;9.70;5.23;;;4.90;99.90;;;;;;5004136;28;20435;-85
2022/02/15 00:50:02;;;;;;;9.73;5.77;;;4.90;99.90;;;;;;4995224;28;20027;-85
2022/02/15 00:52:28;;;;;;;10.63;5.63;;;4.90;99.90;;;;;;4995061;28;20027;-85
2022/02/15 00:54:55;;;;;;;8.40;5.07;;;4.90;99.90;;;;;;4994995;28;20635;-85
2022/02/15 00:57:22;;;;;;;8.90;5.83;;;4.80;99.90;;;;;;4995035;28;20404;-85
2022/02/15 00:59:48;;;;;;;9.30;5.20;;;4.80;99.90;;;;;;4995324;28;20030;-85
2022/02/15 01:02:13;;;;;;;7.00;4.83;;;4.80;99.90;;;;;;4995054;28;20423;-85
2022/02/15 01:04:39;;;;;;;10.70;4.87;;;4.80;99.90;;;;;;5009288;28;20035;-86
2022/02/15 01:07:05;;;;;;;11.03;5.63;;;4.80;99.90;;;;;;5014408;28;20419;-86
2022/02/15 01:09:31;;;;;;;7.07;4.90;;;4.80;99.90;;;;;;5014255;28;20025;-86
2022/02/15 01:11:56;;;;;;;8.00;5.23;;;4.80;99.90;;;;;;5014686;28;20033;-85
2022/02/15 01:14:22;;;;;;;9.30;5.03;;;4.80;99.90;;;;;;4995281;28;20029;-85
2022/02/15 01:16:48;;;;;;;10.30;5.83;;;4.80;99.90;;;;;;5014594;28;20877;-86
2022/02/15 01:19:14;;;;;;;9.60;5.63;;;4.70;99.90;;;;;;5013862;28;20034;-85
2022/02/15 01:21:39;;;;;;;9.87;5.80;;;4.80;99.90;;;;;;5014221;28;20045;-85
2022/02/15 01:24:05;;;;;;;8.30;5.53;;;4.70;99.90;;;;;;5013741;28;20033;-85
2022/02/15 01:26:31;;;;;;;7.90;5.10;;;4.80;99.90;;;;;;5013970;28;20425;-85
2022/02/15 01:28:56;;;;;;;12.60;5.53;;;4.80;99.90;;;;;;5013727;28;20034;-83
2022/02/15 01:31:22;;;;;;;10.00;5.40;;;4.70;99.90;;;;;;5013641;28;20097;-83
2022/02/15 01:33:47;;;;;;;8.80;5.20;;;4.80;99.90;;;;;;5013288;28;20057;-83
2022/02/15 01:36:13;;;;;;;7.67;4.77;;;4.80;99.90;;;;;;5013866;28;20072;-84
2022/02/15 01:38:39;;;;;;;7.87;5.00;;;4.80;99.90;;;;;;5013162;28;20050;-84
2022/02/15 01:41:10;;;;;;;7.47;4.40;;;4.90;99.90;;;;;;5014063;28;20026;-85
2022/02/15 01:43:41;;;;;;;7.10;4.60;;;4.90;99.90;;;;;;5013929;28;20045;-84
2022/02/15 01:46:08;;;;;;;5.80;4.30;;;4.90;99.90;;;;;;5007777;28;20034;-85
2022/02/15 01:48:35;;;;;;;4.50;3.80;;;4.90;99.90;;;;;;4995961;28;20038;-85
2022/02/15 01:51:04;;;;;;;6.40;4.60;;;5.00;99.90;;;;;;5013587;28;20463;-84
2022/02/15 01:53:32;;;;;;;6.03;4.10;;;5.00;99.90;;;;;;5013343;28;20431;-85
2022/02/15 01:55:59;;;;;;;5.30;3.97;;;5.00;99.90;;;;;;5013519;28;20038;-84
2022/02/15 01:58:26;;;;;;;6.13;4.03;;;5.00;99.90;;;;;;5013368;28;20014;-84
2022/02/15 02:00:52;;;;;;;5.03;3.77;;;5.00;99.90;;;;;;5012940;28;20061;-84
2022/02/15 02:03:17;;;;;;;6.27;4.20;;;5.00;99.90;;;;;;4995147;28;20030;-85
2022/02/15 02:05:49;;;;;;;4.57;3.70;;;5.10;99.90;;;;;;4995462;28;20104;-84
2022/02/15 02:08:20;;;;;;;5.27;4.17;;;5.10;99.90;;;;;;5012947;28;20072;-84
2022/02/15 02:10:46;;;;;;;4.67;3.70;;;5.10;99.90;;;;;;5012985;28;20097;-84
2022/02/15 02:13:12;;;;;;;5.30;4.03;;;5.10;99.90;;;;;;5013032;28;20100;-85
2022/02/15 02:15:38;;;;;;;5.23;4.10;;;5.10;99.90;;;;;;5013001;28;20057;-84
2022/02/15 02:18:04;;;;;;;5.07;3.70;;;5.10;99.90;;;;;;5012854;28;20390;-84
2022/02/15 02:20:30;;;;;;;5.60;4.00;;;5.10;99.90;;;;;;5013261;28;20054;-84
2022/02/15 02:22:55;;;;;;;5.57;3.80;;;5.10;99.90;;;;;;5012951;28;20060;-84
2022/02/15 02:25:22;;;;;;;4.90;3.83;;;5.10;99.90;;;;;;4994710;28;20062;-84
2022/02/15 02:27:48;;;;;;;5.07;4.07;;;5.00;99.90;;;;;;4995135;28;20053;-84
2022/02/15 02:30:14;;;;;;;5.43;3.63;;;5.00;99.90;;;;;;5012762;28;20729;-84
2022/02/15 02:32:40;;;;;;;6.43;4.37;;;5.00;99.90;;;;;;4994944;28;20036;-84
2022/02/15 02:35:06;;;;;;;5.57;4.17;;;5.00;99.90;;;;;;5012849;28;20160;-85
2022/02/15 02:37:33;;;;;;;5.13;3.80;;;5.00;99.90;;;;;;5011566;28;20117;-85
2022/02/15 02:40:02;;;;;;;6.00;4.27;;;5.00;99.90;;;;;;5012222;28;20112;-84
2022/02/15 02:42:29;;;;;;;6.87;4.00;;;5.00;99.90;;;;;;5012526;28;20120;-84
2022/02/15 02:44:58;;;;;;;7.10;4.23;;;5.00;99.90;;;;;;5012378;28;20029;-85
2022/02/15 02:47:25;;;;;;;6.63;4.27;;;5.00;99.90;;;;;;4983325;28;20048;-85
2022/02/15 02:49:51;;;;;;;7.43;4.40;;;5.00;99.90;;;;;;5012351;28;20026;-85
2022/02/15 02:52:17;;;;;;;5.43;4.00;;;5.00;99.90;;;;;;5011927;28;20022;-77
2022/02/15 02:54:43;;;;;;;5.80;4.47;;;5.00;99.90;;;;;;5011476;28;20037;-76
2022/02/15 02:57:09;;;;;;;7.27;4.90;;;5.00;99.90;;;;;;5011749;28;20569;-77
2022/02/15 02:59:34;;;;;;;6.27;4.60;;;5.00;99.90;;;;;;5011188;28;20072;-76
2022/02/15 03:02:00;;;;;;;6.93;4.97;;;5.00;99.90;;;;;;5011222;28;20045;-77
2022/02/15 03:04:26;;;;;;;7.43;4.17;;;4.90;99.90;;;;;;4993381;28;20040;-77
2022/02/15 03:06:52;;;;;;;7.30;4.50;;;4.90;99.90;;;;;;5011416;28;20041;-76
2022/02/15 03:09:18;;;;;;;5.87;4.40;;;4.90;99.90;;;;;;5011282;28;20022;-77
2022/02/15 03:11:43;;;;;;;5.83;4.33;;;4.90;99.90;;;;;;5011166;28;20498;-77
2022/02/15 03:14:09;;;;;;;7.77;4.70;;;4.90;99.90;;;;;;5010641;28;20037;-77
2022/02/15 03:16:35;;;;;;;9.27;4.57;;;4.90;99.90;;;;;;5011475;28;20038;-77
2022/02/15 03:19:01;;;;;;;6.33;4.30;;;4.90;99.90;;;;;;5010543;28;20034;-77
2022/02/15 03:21:27;;;;;;;7.47;4.50;;;4.90;99.90;;;;;;5010717;28;20030;-78
2022/02/15 03:23:53;;;;;;;6.17;4.30;;;4.80;99.90;;;;;;5010537;28;20026;-78
2022/02/15 03:26:19;;;;;;;7.30;4.57;;;4.80;99.90;;;;;;4993225;28;20102;-77
2022/02/15 03:28:45;;;;;;;6.83;4.10;;;4.80;99.90;;;;;;5010486;28;20025;-77
2022/02/15 03:31:20;;;;;;;5.97;4.20;;;4.90;99.90;;;;;;5009747;28;20364;-77
2022/02/15 03:33:46;;;;;;;;;;;4.90;99.90;;;;;;4983513;28;20080;-77
2022/02/15 03:36:13;;;;;;;7.03;4.30;;;4.90;99.90;;;;;;5007470;28;19913;-77
2022/02/15 03:38:38;;;;;;;7.50;4.53;;;4.90;99.90;;;;;;5012170;28;20053;-77
2022/02/15 03:43:49;;;;;;;7.07;4.33;;;4.80;99.90;;;;;;5008123;28;20437;-77
2022/02/15 03:46:14;;;;;;;9.60;4.70;;;4.70;99.90;;;;;;5002648;28;20030;-77
2022/02/15 03:48:40;;;;;;;7.43;4.87;;;4.70;99.90;;;;;;5012594;28;20033;-77
2022/02/15 03:51:06;;;;;;;10.73;5.00;;;4.70;99.90;;;;;;4994532;28;20486;-77
2022/02/15 03:53:31;;;;;;;7.17;4.60;;;4.70;99.90;;;;;;4994716;28;20105;-77
2022/02/15 03:55:57;;;;;;;10.93;5.50;;;4.70;99.90;;;;;;5012168;28;20467;-86
2022/02/15 03:58:22;;;;;;;7.00;4.77;;;4.60;99.90;;;;;;5012089;28;20041;-86
2022/02/15 04:00:48;;;;;;;8.70;5.33;;;4.50;99.90;;;;;;5011698;28;20116;-86
2022/02/15 04:03:14;;;;;;;9.47;5.30;;;4.50;99.90;;;;;;5011231;28;20030;-86
2022/02/15 04:05:40;;;;;;;7.83;5.10;;;4.40;99.90;;;;;;5022360;28;20079;-86
2022/02/15 04:08:05;;;;;;;7.47;5.03;;;4.40;99.90;;;;;;5012024;28;20693;-86
2022/02/15 04:10:31;;;;;;;8.90;5.00;;;4.40;99.90;;;;;;5011696;28;20429;-86
2022/02/15 04:12:56;;;;;;;7.50;4.83;;;4.40;99.90;;;;;;5011582;28;20037;-86
2022/02/15 04:15:22;;;;;;;7.20;4.60;;;4.40;99.90;;;;;;4994053;28;20034;-86
2022/02/15 04:17:48;;;;;;;9.30;4.83;;;4.50;99.90;;;;;;5011457;28;20026;-86
2022/02/15 04:20:15;;;;;;;8.27;4.63;;;4.50;99.90;;;;;;5011595;28;20024;-86
2022/02/15 04:22:42;;;;;;;9.07;4.63;;;4.40;99.90;;;;;;5011372;28;20057;-86
2022/02/15 04:25:08;;;;;;;8.97;5.20;;;4.40;99.90;;;;;;5010935;28;20022;-87
2022/02/15 04:27:34;;;;;;;8.20;4.80;;;4.30;99.90;;;;;;4993152;28;20632;-86
2022/02/15 04:30:00;;;;;;;5.87;4.10;;;4.40;99.90;;;;;;5013912;28;20026;-87
2022/02/15 04:32:25;;;;;;;6.23;4.00;;;4.40;99.90;;;;;;4994204;28;20064;-86
2022/02/15 04:34:51;;;;;;;7.80;4.10;;;4.40;99.90;;;;;;4994008;28;20022;-86
2022/02/15 04:37:17;;;;;;;5.37;4.07;;;4.30;99.90;;;;;;5012104;28;20082;-87
2022/02/15 04:39:42;;;;;;;6.67;4.30;;;4.30;99.90;;;;;;5011521;28;20085;-86
2022/02/15 04:42:08;;;;;;;6.43;3.80;;;4.30;99.90;;;;;;5011600;28;20418;-87
2022/02/15 04:44:34;;;;;;;11.63;4.20;;;4.30;99.90;;;;;;5011162;28;20502;-87
2022/02/15 04:46:59;;;;;;;5.63;4.23;;;4.30;99.90;;;;;;5005253;28;20160;-88
2022/02/15 04:49:27;;;;;;;5.33;3.90;;;4.20;99.90;;;;;;4995286;28;20480;-87
2022/02/15 04:51:54;;;;;;;6.37;3.47;;;4.20;99.90;;;;;;4996090;28;20037;-87
2022/02/15 04:54:21;;;;;;;6.80;3.63;;;4.30;99.90;;;;;;5007671;28;20385;-87
2022/02/15 04:56:47;;;;;;;7.03;3.93;;;4.30;99.90;;;;;;5015579;28;20113;-86
2022/02/15 04:59:13;;;;;;;5.87;3.57;;;4.30;99.90;;;;;;5014882;28;20113;-86
2022/02/15 05:01:38;;;;;;;5.13;3.43;;;4.30;99.90;;;;;;5014823;28;20886;-85
2022/02/15 05:04:04;;;;;;;6.30;3.17;;;4.30;99.90;;;;;;5014679;28;20046;-85
2022/02/15 05:06:30;;;;;;;7.60;3.93;;;4.30;99.90;;;;;;4997342;28;20034;-86
2022/02/15 05:08:55;;;;;;;4.83;3.00;;;4.20;99.90;;;;;;4996675;28;20025;-86
2022/02/15 05:11:21;;;;;;;6.37;3.40;;;4.30;99.90;;;;;;4996513;28;20485;-86
2022/02/15 05:13:47;;;;;;;8.97;3.77;;;4.30;99.90;;;;;;5014146;28;20037;-87
2022/02/15 05:16:12;;;;;;;7.40;3.40;;;4.30;99.90;;;;;;5014655;28;20025;-87
2022/02/15 05:18:38;;;;;;;8.33;3.57;;;4.30;99.90;;;;;;5013701;28;20038;-87
2022/02/15 05:21:04;;;;;;;5.10;3.37;;;4.30;99.90;;;;;;5014310;28;20038;-86
2022/02/15 05:23:30;;;;;;;10.10;4.30;;;4.30;99.90;;;;;;4996625;28;20029;-86
2022/02/15 05:25:56;;;;;;;8.77;4.40;;;4.30;99.90;;;;;;5013837;28;20033;-86
2022/02/15 05:28:22;;;;;;;8.60;3.53;;;4.30;99.90;;;;;;5013274;28;20335;-86
2022/02/15 05:30:48;;;;;;;10.23;4.57;;;4.30;99.90;;;;;;5014042;28;20030;-86
2022/02/15 05:33:16;;;;;;;8.13;3.57;;;4.30;99.90;;;;;;5014057;28;20033;-86
2022/02/15 05:35:41;;;;;;;6.97;3.13;;;4.20;99.90;;;;;;5014361;28;20105;-86
2022/02/15 05:38:07;;;;;;;5.60;3.10;;;4.10;99.90;;;;;;5014680;28;20184;-86
2022/02/15 05:40:32;;;;;;;5.90;2.70;;;4.10;99.90;;;;;;5014242;28;20022;-86
2022/02/15 05:42:58;;;;;;;6.40;3.23;;;4.10;99.90;;;;;;5014366;28;20046;-86
2022/02/15 05:45:26;;;;;;;4.93;2.80;;;4.10;99.90;;;;;;4995447;28;20026;-86
2022/02/15 05:47:52;;;;;;;5.63;3.03;;;4.10;99.90;;;;;;5014247;28;20026;-86
2022/02/15 05:53:02;;;;;;;5.57;2.70;;;4.00;99.90;;;;;;5014341;28;20430;-86
2022/02/15 05:55:27;;;;;;;6.70;2.70;;;4.00;99.90;;;;;;4993930;28;20030;-86
2022/02/15 05:57:53;;;;;;;4.47;2.73;;;4.00;99.90;;;;;;5014545;28;20029;-86
2022/02/15 06:00:19;;;;;;;5.33;2.73;;;4.00;99.90;;;;;;5012899;28;20061;-86
2022/02/15 06:02:46;;;;;;;5.00;2.60;;;4.00;99.90;;;;;;5014275;28;20478;-87
2022/02/15 06:05:12;;;;;;;5.27;3.23;;;4.00;99.90;;;;;;5013505;28;20794;-86
2022/02/15 06:07:37;;;;;;;5.90;2.60;;;4.00;99.90;;;;;;4990064;28;20403;-85
2022/02/15 06:10:03;;;;;;;4.30;2.53;;;4.00;99.90;;;;;;5006193;28;20033;-85
2022/02/15 06:12:29;;;;;;;6.00;2.70;;;4.00;99.90;;;;;;5010379;28;20117;-85
2022/02/15 06:14:55;;;;;;;7.13;3.20;;;3.90;99.90;;;;;;5013275;28;20112;-86
2022/02/15 06:17:20;;;;;;;4.73;2.50;;;3.90;99.90;;;;;;5008052;28;20089;-86
2022/02/15 06:19:46;;;;;;;6.50;2.87;;;3.90;99.90;;;;;;5013425;28;20037;-86
2022/02/15 06:22:11;;;;;;;5.17;2.87;;;3.90;99.90;;;;;;5012786;28;20072;-86
2022/02/15 06:24:37;;;;;;;3.97;2.67;;;3.80;99.90;;;;;;4995510;28;20403;-86
2022/02/15 06:27:03;;;;;;;5.90;2.70;;;3.80;99.90;;;;;;4996227;28;20148;-86
2022/02/15 06:29:32;;;;;;;4.63;2.67;;;3.80;99.90;;;;;;5013245;28;20368;-86
2022/02/15 06:31:58;;;;;;;3.90;2.93;;;3.80;99.90;;;;;;4996064;28;20088;-85
2022/02/15 06:34:25;;;;;;;6.90;2.80;;;3.80;99.90;;;;;;5010689;28;20094;-85
2022/02/15 06:36:52;;;;;;;4.90;2.80;;;3.90;99.90;;;;;;4993929;28;20220;-85
2022/02/15 06:39:18;;;;;;;7.47;3.37;;;3.90;99.90;;;;;;5010817;28;20560;-87
2022/02/15 06:41:43;;;;;;;4.53;3.10;;;3.90;99.90;;;;;;5012417;28;20217;-87
2022/02/15 06:44:09;;;;;;;3.97;3.20;;;3.90;99.90;;;;;;5012208;28;20132;-87
2022/02/15 06:46:36;;;;;;;7.93;3.60;;;3.90;99.90;;;;;;5006013;28;20373;-87
2022/02/15 06:49:02;;;;;;;5.57;3.53;;;3.80;99.90;;;;;;4991445;28;20596;-86
2022/02/15 06:51:28;;;;;;;4.87;3.13;;;3.80;99.90;;;;;;4997040;28;20038;-87
2022/02/15 06:53:53;;;;;;;4.60;3.33;;;3.80;99.90;;;;;;4991173;28;20036;-87
2022/02/15 06:56:19;;;;;;;5.53;3.80;;;3.80;99.90;;;;;;5010301;28;20618;-86
2022/02/15 06:58:45;;;;;;;6.43;4.07;;;3.80;99.90;;;;;;5010041;28;20037;-86
2022/02/15 07:01:10;;;;;;;6.97;3.50;;;3.80;99.90;;;;;;5009274;28;20463;-86
2022/02/15 07:03:36;;;;;;;7.10;3.50;;;3.80;99.90;;;;;;4990274;28;20040;-86
2022/02/15 07:06:03;;;;;;;6.87;3.43;;;3.80;99.90;;;;;;5009769;28;20426;-85
2022/02/15 07:08:28;;;;;;;8.00;3.37;;;3.80;99.90;;;;;;5009683;28;20128;-86
2022/02/15 07:10:54;;;;;;;6.30;4.10;;;3.80;99.90;;;;;;4992576;28;20849;-86
2022/02/15 07:13:25;;;;;;;8.07;4.70;;;3.80;99.90;;;;;;5007903;28;20530;-85
2022/02/15 07:15:51;;;;;;;6.93;4.50;;;3.80;99.90;;;;;;5008289;28;20391;-86
2022/02/15 07:18:17;;;;;;;8.50;5.37;;;3.80;99.90;;;;;;5008910;28;20038;-85
2022/02/15 07:20:42;;;;;;;11.03;6.03;;;3.80;99.90;;;;;;5009442;28;20025;-87
2022/02/15 07:23:10;;;;;;;8.87;5.23;;;3.80;99.90;;;;;;5008023;28;20061;-87
2022/02/15 07:25:39;;;;;;;9.20;6.17;;;3.80;99.90;;;;;;5009726;28;20565;-87
2022/02/15 07:28:05;;;;;;;10.00;6.53;;;3.80;99.90;;;;;;5011019;28;20029;-89
2022/02/15 07:30:32;;;;;;;9.33;5.60;;;3.80;99.90;;;;;;5011141;28;20360;-89
2022/02/15 07:32:58;;;;;;;8.73;5.73;;;3.80;99.90;;;;;;5010630;28;20109;-89
2022/02/15 07:35:23;;;;;;;12.20;6.70;;;3.80;99.90;;;;;;5011056;28;20489;-89
2022/02/15 07:37:50;;;;;;;7.30;6.07;;;3.80;99.90;;;;;;5011167;28;20057;-89
2022/02/15 07:40:21;;;;;;;9.53;6.00;;;3.80;99.90;;;;;;5011251;28;20490;-88
2022/02/15 07:42:47;;;;;;;9.87;5.30;;;3.90;99.90;;;;;;5009848;28;20036;-89
2022/02/15 07:45:17;;;;;;;6.73;4.60;;;3.90;99.90;;;;;;5011373;28;20430;-89
2022/02/15 07:47:53;;;;;;;7.93;4.73;;;3.90;99.90;;;;;;5010509;28;20033;-89
2022/02/15 07:50:19;;;;;;;;;;;4.00;99.90;;;;;;5011912;28;20030;-89
2022/02/15 07:52:47;;;;;;;7.60;4.90;;;4.00;99.90;;;;;;5010440;28;19909;-90
2022/02/15 07:55:13;;;;;;;10.40;4.90;;;4.10;99.90;;;;;;5006481;28;20109;-89
2022/02/15 07:57:39;;;;;;;10.83;5.83;;;4.10;99.90;;;;;;5009868;28;20114;-89
2022/02/15 08:00:05;;;;;;;7.70;5.20;;;4.10;99.90;;;;;;5011524;28;20029;-89
2022/02/15 08:02:31;;;;;;;7.60;4.53;;;4.10;99.90;;;;;;4992544;28;20038;-90
2022/02/15 08:04:56;;;;;;;7.00;4.57;;;4.10;99.90;;;;;;5012096;28;20478;-89
2022/02/15 08:07:22;;;;;;;9.23;4.80;;;4.20;99.90;;;;;;5011323;28;20037;-89
2022/02/15 08:09:48;;;;;;;11.83;5.30;;;4.20;99.90;;;;;;4993386;28;20207;-90
2022/02/15 08:12:17;;;;;;;12.60;4.60;;;4.30;99.90;;;;;;4992870;28;20030;-90
2022/02/15 08:14:44;;;;;;;7.53;4.67;;;4.30;99.90;;;;;;4994073;28;20029;-90
2022/02/15 08:17:10;;;;;;;8.33;4.60;;;4.30;99.90;;;;;;4994738;28;20022;-91
2022/02/15 08:19:35;;;;;;;7.27;4.43;;;4.40;99.90;;;;;;5012269;28;20037;-91
2022/02/15 08:22:01;;;;;;;9.73;4.47;;;4.50;99.90;;;;;;5012251;28;20743;-90
2022/02/15 08:24:27;;;;;;;6.60;4.17;;;4.50;99.90;;;;;;5014016;28;20026;-90
2022/02/15 08:26:53;;;;;;;12.60;4.40;;;4.60;99.90;;;;;;5015520;28;20022;-90
2022/02/15 08:29:19;;;;;;;7.00;4.30;;;4.70;99.90;;;;;;5015216;28;20107;-91
2022/02/15 08:31:44;;;;;;;6.97;3.70;;;4.70;99.90;;;;;;5014086;28;20034;-90
2022/02/15 08:34:10;;;;;;;6.50;3.97;;;4.80;99.90;;;;;;5013760;28;20030;-86
2022/02/15 08:36:36;;;;;;;9.90;4.00;;;4.90;99.90;;;;;;5011241;28;20763;-86
2022/02/15 08:39:03;;;;;;;8.43;4.47;;;4.90;99.90;;;;;;5011593;28;20075;-85
2022/02/15 08:41:28;;;;;;;7.27;3.57;;;5.00;99.90;;;;;;5010584;28;20077;-86
2022/02/15 08:43:54;;;;;;;7.50;4.50;;;5.10;99.90;;;;;;5010436;28;20451;-85
2022/02/15 08:46:19;;;;;;;4.80;3.20;;;5.10;99.90;;;;;;5010487;28;20033;-85
2022/02/15 08:48:45;;;;;;;5.90;3.63;;;5.30;99.90;;;;;;5011028;28;20084;-85
2022/02/15 08:51:10;;;;;;;5.87;3.70;;;5.30;99.90;;;;;;5010939;28;20371;-85
2022/02/15 08:53:38;;;;;;;4.83;3.17;;;5.30;99.90;;;;;;4991153;28;20125;-84
2022/02/15 08:56:04;;;;;;;4.87;3.30;;;5.30;99.90;;;;;;5011186;28;20022;-85
2022/02/15 08:58:32;;;;;;;6.30;3.10;;;5.40;99.90;;;;;;5009538;28;20038;-77
2022/02/15 09:01:00;;;;;;;7.53;3.20;;;5.40;99.90;;;;;;5009022;28;20030;-77
2022/02/15 09:03:26;;;;;;;5.03;2.77;;;5.40;99.90;;;;;;4990120;28;20539;-76
2022/02/15 09:05:51;;;;;;;6.60;2.63;;;5.40;99.90;;;;;;5009075;28;20026;-76
2022/02/15 09:08:17;;;;;;;5.80;3.47;;;5.40;99.90;;;;;;5008150;28;20038;-76
2022/02/15 09:10:42;;;;;;;4.53;2.60;;;5.40;99.90;;;;;;5008667;28;20048;-76
2022/02/15 09:13:08;;;;;;;4.73;2.97;;;5.40;99.90;;;;;;5007719;28;20123;-76
2022/02/15 09:15:34;;;;;;;4.20;3.10;;;5.50;99.90;;;;;;5008344;28;20482;-76
2022/02/15 09:17:59;;;;;;;5.27;3.00;;;5.50;99.90;;;;;;5008517;28;20034;-76
2022/02/15 09:20:26;;;;;;;4.97;3.27;;;5.40;99.90;;;;;;4990820;28;20034;-76
2022/02/15 09:22:52;;;;;;;6.87;3.00;;;5.50;99.90;;;;;;5006920;28;20049;-77
2022/02/15 09:25:17;;;;;;;4.50;2.80;;;5.50;99.90;;;;;;5004710;28;20038;-76
2022/02/15 09:27:43;;;;;;;5.90;2.80;;;5.50;99.90;;;;;;5014033;28;20084;-84
2022/02/15 09:30:09;;;;;;;7.60;2.83;;;5.40;99.90;;;;;;5009348;28;20041;-77
2022/02/15 09:32:35;;;;;;;7.80;2.60;;;5.40;99.90;;;;;;5008861;28;20034;-77
2022/02/15 09:35:01;;;;;;;7.87;3.10;;;5.40;99.90;;;;;;5010178;28;20725;-77
2022/02/15 09:37:27;;;;;;;7.40;2.30;;;5.40;99.90;;;;;;5009942;28;20046;-77
2022/02/15 09:39:55;;;;;;;4.73;2.10;;;5.40;99.90;;;;;;5008366;28;20074;-78
2022/02/15 09:42:22;;;;;;;4.87;2.30;;;5.40;99.90;;;;;;5008693;28;20030;-78
2022/02/15 09:44:47;;;;;;;4.60;2.30;;;5.40;99.90;;;;;;5009843;28;20045;-90
2022/02/15 09:47:15;;;;;;;3.90;2.00;;;5.40;99.90;;;;;;5010878;28;20038;-90
2022/02/15 09:49:51;;;;;;;3.93;1.97;;;5.40;99.90;;;;;;5011895;28;20825;-91
2022/02/15 09:52:18;;;;;;;;;;;5.50;99.90;;;;;;5011234;28;20080;-90
2022/02/15 09:54:45;;;;;;;5.10;1.80;;;5.50;99.90;;;;;;5012802;28;20368;-91
2022/02/15 09:57:12;;;;;;;4.63;2.10;;;5.50;99.90;;;;;;4995865;28;20034;-89
2022/02/15 09:59:38;;;;;;;6.07;1.90;;;5.60;99.90;;;;;;5011383;28;20152;-90
2022/02/15 10:02:12;;;;;;;4.37;2.10;;;5.70;99.90;;;;;;5011350;28;20132;-77
2022/02/15 10:04:38;;;;;;;4.70;2.40;;;5.70;99.90;;;;;;5007315;28;20164;-77
2022/02/15 10:07:05;;;;;;;3.43;2.20;;;5.80;99.90;;;;;;5007848;28;20128;-77
2022/02/15 10:09:32;;;;;;;3.40;2.03;;;5.80;99.90;;;;;;5007234;28;20034;-77
2022/02/15 10:12:09;;;;;;;4.53;2.40;;;5.70;99.90;;;;;;5007723;28;20041;-78
2022/02/15 10:14:40;;;;;;;2.70;2.10;;;5.90;99.90;;;;;;5007698;28;20026;-78
2022/02/15 10:17:13;;;;;;;4.90;2.13;;;5.90;99.90;;;;;;5008209;28;20157;-77
2022/02/15 10:19:41;;;;;;;3.67;2.30;;;5.90;99.90;;;;;;5007130;28;20168;-76
2022/02/15 10:22:07;;;;;;;4.67;2.10;;;6.00;99.90;;;;;;5007289;28;20030;-77
2022/02/15 10:24:35;;;;;;;5.60;2.10;;;6.10;99.90;;;;;;5007015;28;20026;-77
2022/02/15 10:27:04;;;;;;;3.67;2.20;;;6.20;99.90;;;;;;5007119;28;20033;-78
2022/02/15 10:29:33;;;;;;;3.47;2.20;;;6.10;99.90;;;;;;5006772;28;20599;-78
2022/02/15 10:32:01;;;;;;;3.70;2.30;;;6.10;99.90;;;;;;5007107;28;20030;-78
2022/02/15 10:34:28;;;;;;;3.63;2.00;;;6.00;99.90;;;;;;4989313;28;20434;-78
2022/02/15 10:36:55;;;;;;;3.37;2.30;;;6.00;99.90;;;;;;4989455;28;20034;-78
2022/02/15 10:39:22;;;;;;;5.20;2.50;;;6.00;99.90;;;;;;5007065;28;20049;-78
2022/02/15 10:41:47;;;;;;;4.20;2.63;;;5.90;99.90;;;;;;4988023;28;20030;-79
2022/02/15 10:44:15;;;;;;;2.80;2.30;;;6.00;99.90;;;;;;5006600;28;20034;-78
2022/02/15 10:46:41;;;;;;;4.80;2.17;;;6.00;99.90;;;;;;5003470;28;20479;-78
2022/02/15 10:49:07;;;;;;;5.07;2.30;;;6.10;99.90;;;;;;5006559;28;20040;-78
2022/02/15 10:51:33;;;;;;;3.63;2.27;;;6.10;99.90;;;;;;5006406;28;20057;-79
2022/02/15 10:53:59;;;;;;;3.43;2.40;;;6.10;99.90;;;;;;5004298;28;20100;-78
2022/02/15 10:56:31;;;;;;;2.73;2.00;;;6.20;99.90;;;;;;5005786;28;20136;-78
2022/02/15 10:59:00;;;;;;;4.63;2.80;;;6.20;99.90;;;;;;4989780;28;21286;-78
2022/02/15 11:01:27;;;;;;;4.33;2.67;;;6.30;99.90;;;;;;5005084;28;20026;-78
2022/02/15 11:03:54;;;;;;;4.27;2.60;;;6.30;99.90;;;;;;5006903;28;20120;-78
2022/02/15 11:06:19;;;;;;;4.33;2.77;;;6.30;99.90;;;;;;5006053;28;20052;-76
2022/02/15 11:08:51;;;;;;;3.80;2.30;;;6.30;99.90;;;;;;5006169;28;20026;-77
2022/02/15 11:11:23;;;;;;;5.33;2.77;;;6.20;99.90;;;;;;5006468;28;20025;-77
2022/02/15 11:13:50;;;;;;;3.60;2.70;;;6.20;99.90;;;;;;5007050;28;20378;-76
2022/02/15 11:16:17;;;;;;;3.93;2.43;;;6.30;99.90;;;;;;5009438;28;20356;-76
2022/02/15 11:18:47;;;;;;;4.87;2.70;;;6.30;99.90;;;;;;5009643;28;20025;-77
2022/02/15 11:21:23;;;;;;;3.60;2.93;;;6.40;99.90;;;;;;5008854;28;20077;-77
2022/02/15 11:24:01;;;;;;;5.37;2.83;;;6.30;99.90;;;;;;5007292;28;20049;-77
2022/02/15 11:26:35;;;;;;;4.60;2.90;;;6.40;99.90;;;;;;5010005;28;20080;-91
2022/02/15 11:29:02;;;;;;;4.80;3.20;;;6.40;99.90;;;;;;5010094;28;20034;-85
2022/02/15 11:31:34;;;;;;;4.57;2.90;;;6.40;99.90;;;;;;5010985;28;20494;-86
2022/02/15 11:34:04;;;;;;;5.50;3.50;;;6.40;99.90;;;;;;5009918;28;20433;-91
2022/02/15 11:36:31;;;;;;;4.10;3.33;;;6.50;99.90;;;;;;4996465;28;20135;-90
2022/02/15 11:38:59;;;;;;;4.60;3.20;;;6.60;99.90;;;;;;4995434;28;20087;-78
2022/02/15 11:41:27;;;;;;;4.03;3.30;;;6.60;99.90;;;;;;5010685;28;20079;-76
2022/02/15 11:44:01;;;;;;;5.20;3.50;;;6.70;99.90;;;;;;5008967;28;20018;-77
2022/02/15 11:46:43;;;;;;;4.27;3.33;;;6.70;99.90;;;;;;5008429;28;20034;-76
2022/02/15 11:49:09;;;;;;;5.30;3.30;;;6.80;99.90;;;;;;5008416;28;20026;-76
2022/02/15 11:51:36;;;;;;;3.67;2.87;;;7.00;99.90;;;;;;5008380;28;20431;-76
2022/02/15 11:54:03;;;;;;;3.50;2.90;;;7.20;99.90;;;;;;5008436;28;20018;-76
2022/02/15 11:56:30;;;;;;;5.40;3.87;;;7.20;99.90;;;;;;5008351;28;20049;-77
2022/02/15 11:58:57;;;;;;;6.57;3.40;;;7.10;99.90;;;;;;5009270;28;20026;-77
2022/02/15 12:01:26;;;;;;;5.80;3.20;;;7.20;99.90;;;;;;5009902;28;20033;-77
2022/02/15 12:03:53;;;;;;;3.87;3.23;;;7.10;99.90;;;;;;5009256;28;20033;-77
2022/02/15 12:06:19;;;;;;;4.93;3.43;;;7.10;99.90;;;;;;5009022;28;20149;-77
2022/02/15 12:09:04;;;;;;;3.87;3.20;;;7.10;99.90;;;;;;5009904;28;20030;-77
2022/02/15 12:11:37;;;;;;;3.73;3.00;;;7.10;99.90;;;;;;5007663;28;20029;-85
2022/02/15 12:14:10;;;;;;;3.87;3.30;;;7.10;99.90;;;;;;5007981;28;20125;-86
2022/02/15 12:16:45;;;;;;;5.00;3.40;;;7.10;99.90;;;;;;4992030;28;20105;-85
2022/02/15 12:19:31;;;;;;;4.73;3.27;;;7.10;99.90;;;;;;5010745;28;20022;-86
2022/02/15 12:21:59;;;;;;;4.67;3.63;;;7.10;99.90;;;;;;5010516;28;20433;-86
2022/02/15 12:24:26;;;;;;;5.60;3.60;;;7.10;99.90;;;;;;5007893;28;20697;-86
2022/02/15 12:26:54;;;;;;;4.53;3.60;;;7.10;99.90;;;;;;5011529;28;20439;-86
2022/02/15 12:29:19;;;;;;;5.23;3.63;;;7.00;99.90;;;;;;5010453;28;20105;-87
2022/02/15 12:31:45;;;;;;;5.13;3.80;;;6.90;99.90;;;;;;5011276;28;20101;-87
2022/02/15 12:34:14;;;;;;;4.03;3.60;;;6.80;99.90;;;;;;5010393;28;20033;-87
2022/02/15 12:36:40;;;;;;;4.83;3.50;;;6.80;99.90;;;;;;5010945;28;20046;-87
2022/02/15 12:39:06;;;;;;;4.80;3.97;;;6.80;99.90;;;;;;5010056;28;20041;-78
2022/02/15 12:41:38;;;;;;;5.47;3.73;;;6.80;99.90;;;;;;5010444;28;20041;-87
2022/02/15 12:44:05;;;;;;;6.67;4.40;;;6.80;99.90;;;;;;5010936;28;20105;-87
2022/02/15 12:46:31;;;;;;;6.97;4.47;;;6.80;99.90;;;;;;5011475;28;20048;-87
2022/02/15 12:48:58;;;;;;;5.30;4.17;;;6.80;99.90;;;;;;5010376;28;20033;-86
2022/02/15 12:51:23;;;;;;;5.73;4.30;;;6.70;99.90;;;;;;5011240;28;20022;-85
2022/02/15 12:53:55;;;;;;;5.37;4.17;;;6.70;99.90;;;;;;5010079;28;20451;-86
2022/02/15 12:56:22;;;;;;;5.53;4.43;;;6.60;99.90;;;;;;5011196;28;20038;-86
2022/02/15 12:58:49;;;;;;;7.03;4.13;;;6.60;99.90;;;;;;5010753;28;20033;-86
2022/02/15 13:01:16;;;;;;;6.03;3.70;;;6.60;99.90;;;;;;5011061;28;20693;-86